Terminal Aerodrome Forecast
Issued by NWS North Platte, NE

Home | Current Version | Previous Version | Text Only | Print | Product List | Glossary On
Versions: 1 2 3 4 5 6 7 8 9 10 11 12
931
FTUS43 KLBF 102320
TAFLBF
TAF
KLBF 102320Z 1100/1124 26008KT P6SM SKC
     FM110100 VRB04KT P6SM SKC
     FM110500 30006KT P6SM SCT250 WS020/32045KT
     FM111000 31010KT P6SM FEW250
     FM111600 31015G29KT P6SM FEW250
     FM111800 33025G36KT P6SM SCT200=

USA.gov is the U.S. government's official web portal to all federal, state and local government web resources and services.